sensor_id;sensor_type;location;lat;lon;timestamp;temperature;humidity
16038;DHT22;8123;50.906;6.172;2022-11-30T00:00:11;7.40;99.90
16038;DHT22;8123;50.906;6.172;2022-11-30T00:02:36;7.40;99.90
16038;DHT22;8123;50.906;6.172;2022-11-30T00:05:02;7.50;99.90
16038;DHT22;8123;50.906;6.172;2022-11-30T00:07:28;7.40;99.90
16038;DHT22;8123;50.906;6.172;2022-11-30T00:09:53;7.40;99.90
16038;DHT22;8123;50.906;6.172;2022-11-30T00:12:19;7.40;99.90
16038;DHT22;8123;50.906;6.172;2022-11-30T00:14:44;7.40;99.90
16038;DHT22;8123;50.906;6.172;2022-11-30T00:17:10;7.40;99.90
16038;DHT22;8123;50.906;6.172;2022-11-30T00:19:36;8.20;99.90
16038;DHT22;8123;50.906;6.172;2022-11-30T00:22:01;7.40;99.90
16038;DHT22;8123;50.906;6.172;2022-11-30T00:24:27;7.40;99.90
16038;DHT22;8123;50.906;6.172;2022-11-30T00:26:53;7.50;99.90
16038;DHT22;8123;50.906;6.172;2022-11-30T00:29:18;7.50;99.90
16038;DHT22;8123;50.906;6.172;2022-11-30T00:31:44;7.50;99.90
16038;DHT22;8123;50.906;6.172;2022-11-30T00:34:10;7.50;99.90
16038;DHT22;8123;50.906;6.172;2022-11-30T00:36:36;7.50;99.90
16038;DHT22;8123;50.906;6.172;2022-11-30T00:39:02;7.80;99.90
16038;DHT22;8123;50.906;6.172;2022-11-30T00:41:27;7.50;99.90
16038;DHT22;8123;50.906;6.172;2022-11-30T00:43:53;7.70;99.90
16038;DHT22;8123;50.906;6.172;2022-11-30T00:46:19;7.50;99.90
16038;DHT22;8123;50.906;6.172;2022-11-30T00:48:44;7.50;99.90
16038;DHT22;8123;50.906;6.172;2022-11-30T00:51:11;7.60;99.90
16038;DHT22;8123;50.906;6.172;2022-11-30T00:53:37;7.50;99.90
16038;DHT22;8123;50.906;6.172;2022-11-30T00:56:05;7.80;99.90
16038;DHT22;8123;50.906;6.172;2022-11-30T00:58:30;7.50;99.90
16038;DHT22;8123;50.906;6.172;2022-11-30T01:00:56;7.60;99.90
16038;DHT22;8123;50.906;6.172;2022-11-30T01:03:22;7.80;99.90
16038;DHT22;8123;50.906;6.172;2022-11-30T01:05:47;7.50;99.90
16038;DHT22;8123;50.906;6.172;2022-11-30T01:08:13;7.60;99.90
16038;DHT22;8123;50.906;6.172;2022-11-30T01:10:40;7.60;99.90
16038;DHT22;8123;50.906;6.172;2022-11-30T01:13:06;7.60;99.90
16038;DHT22;8123;50.906;6.172;2022-11-30T01:15:37;7.60;99.90
16038;DHT22;8123;50.906;6.172;2022-11-30T01:18:03;7.50;99.90
16038;DHT22;8123;50.906;6.172;2022-11-30T01:20:29;7.70;99.90
16038;DHT22;8123;50.906;6.172;2022-11-30T01:22:55;7.60;99.90
16038;DHT22;8123;50.906;6.172;2022-11-30T01:25:20;7.70;99.90
16038;DHT22;8123;50.906;6.172;2022-11-30T01:27:50;7.60;99.90
16038;DHT22;8123;50.906;6.172;2022-11-30T01:30:16;7.80;99.90
16038;DHT22;8123;50.906;6.172;2022-11-30T01:32:42;7.50;99.90
16038;DHT22;8123;50.906;6.172;2022-11-30T01:35:08;7.80;99.90
16038;DHT22;8123;50.906;6.172;2022-11-30T01:37:34;7.50;99.90
16038;DHT22;8123;50.906;6.172;2022-11-30T01:39:59;7.60;99.90
16038;DHT22;8123;50.906;6.172;2022-11-30T01:42:25;7.60;99.90
16038;DHT22;8123;50.906;6.172;2022-11-30T01:44:58;7.50;99.90
16038;DHT22;8123;50.906;6.172;2022-11-30T01:47:35;7.50;99.90
16038;DHT22;8123;50.906;6.172;2022-11-30T01:50:20;7.50;99.90
16038;DHT22;8123;50.906;6.172;2022-11-30T01:52:52;7.70;99.90
16038;DHT22;8123;50.906;6.172;2022-11-30T01:55:29;7.50;99.90
16038;DHT22;8123;50.906;6.172;2022-11-30T01:58:05;7.50;99.90
16038;DHT22;8123;50.906;6.172;2022-11-30T02:00:32;7.70;99.90
16038;DHT22;8123;50.906;6.172;2022-11-30T02:03:09;7.50;99.90
16038;DHT22;8123;50.906;6.172;2022-11-30T02:05:38;7.50;99.90
16038;DHT22;8123;50.906;6.172;2022-11-30T02:08:06;7.40;99.90
16038;DHT22;8123;50.906;6.172;2022-11-30T02:10:34;7.40;99.90
16038;DHT22;8123;50.906;6.172;2022-11-30T02:21:23;7.40;99.90
16038;DHT22;8123;50.906;6.172;2022-11-30T02:27:08;7.40;99.90
16038;DHT22;8123;50.906;6.172;2022-11-30T02:29:48;7.40;99.90
16038;DHT22;8123;50.906;6.172;2022-11-30T02:32:24;7.40;99.90
16038;DHT22;8123;50.906;6.172;2022-11-30T02:34:53;7.30;99.90
16038;DHT22;8123;50.906;6.172;2022-11-30T02:37:21;7.70;99.90
16038;DHT22;8123;50.906;6.172;2022-11-30T02:39:48;7.60;99.90
16038;DHT22;8123;50.906;6.172;2022-11-30T02:42:14;7.50;99.90
16038;DHT22;8123;50.906;6.172;2022-11-30T02:44:43;7.60;99.90
16038;DHT22;8123;50.906;6.172;2022-11-30T02:47:20;7.40;99.90
16038;DHT22;8123;50.906;6.172;2022-11-30T02:52:31;7.40;99.90
16038;DHT22;8123;50.906;6.172;2022-11-30T02:55:02;7.40;99.90
16038;DHT22;8123;50.906;6.172;2022-11-30T02:57:28;7.10;99.90
16038;DHT22;8123;50.906;6.172;2022-11-30T02:59:54;7.60;99.90
16038;DHT22;8123;50.906;6.172;2022-11-30T03:02:20;7.70;99.90
16038;DHT22;8123;50.906;6.172;2022-11-30T03:04:46;7.40;99.90
16038;DHT22;8123;50.906;6.172;2022-11-30T03:07:11;7.40;99.90
16038;DHT22;8123;50.906;6.172;2022-11-30T03:09:37;7.50;99.90
16038;DHT22;8123;50.906;6.172;2022-11-30T03:12:03;7.40;99.90
16038;DHT22;8123;50.906;6.172;2022-11-30T03:14:28;7.50;99.90
16038;DHT22;8123;50.906;6.172;2022-11-30T03:16:54;7.80;99.90
16038;DHT22;8123;50.906;6.172;2022-11-30T03:19:20;7.50;99.90
16038;DHT22;8123;50.906;6.172;2022-11-30T03:21:45;7.60;99.90
16038;DHT22;8123;50.906;6.172;2022-11-30T03:24:11;7.80;99.90
16038;DHT22;8123;50.906;6.172;2022-11-30T03:26:36;7.50;99.90
16038;DHT22;8123;50.906;6.172;2022-11-30T03:29:02;7.50;99.90
16038;DHT22;8123;50.906;6.172;2022-11-30T03:31:28;7.80;99.90
16038;DHT22;8123;50.906;6.172;2022-11-30T03:33:54;7.50;99.90
16038;DHT22;8123;50.906;6.172;2022-11-30T03:36:19;7.50;99.90
16038;DHT22;8123;50.906;6.172;2022-11-30T03:38:45;7.60;99.90
16038;DHT22;8123;50.906;6.172;2022-11-30T03:41:14;7.50;99.90
16038;DHT22;8123;50.906;6.172;2022-11-30T03:43:44;7.60;99.90
16038;DHT22;8123;50.906;6.172;2022-11-30T03:46:11;7.50;99.90
16038;DHT22;8123;50.906;6.172;2022-11-30T03:48:37;7.80;99.90
16038;DHT22;8123;50.906;6.172;2022-11-30T03:51:04;7.60;99.90
16038;DHT22;8123;50.906;6.172;2022-11-30T03:53:30;7.50;99.90
16038;DHT22;8123;50.906;6.172;2022-11-30T03:56:02;7.50;99.90
16038;DHT22;8123;50.906;6.172;2022-11-30T03:58:28;7.50;99.90
16038;DHT22;8123;50.906;6.172;2022-11-30T04:01:04;7.60;99.90
16038;DHT22;8123;50.906;6.172;2022-11-30T04:03:30;7.50;99.90
16038;DHT22;8123;50.906;6.172;2022-11-30T04:05:57;7.70;99.90
16038;DHT22;8123;50.906;6.172;2022-11-30T04:08:23;7.50;99.90
16038;DHT22;8123;50.906;6.172;2022-11-30T04:10:53;7.50;99.90
16038;DHT22;8123;50.906;6.172;2022-11-30T04:13:20;7.50;99.90
16038;DHT22;8123;50.906;6.172;2022-11-30T04:15:47;7.70;99.90
16038;DHT22;8123;50.906;6.172;2022-11-30T04:18:14;7.70;99.90
16038;DHT22;8123;50.906;6.172;2022-11-30T04:20:40;7.80;99.90
16038;DHT22;8123;50.906;6.172;2022-11-30T04:23:06;7.50;99.90
16038;DHT22;8123;50.906;6.172;2022-11-30T04:25:32;7.50;99.90
16038;DHT22;8123;50.906;6.172;2022-11-30T04:27:57;7.50;99.90
16038;DHT22;8123;50.906;6.172;2022-11-30T04:30:23;7.70;99.90
16038;DHT22;8123;50.906;6.172;2022-11-30T04:32:48;7.50;99.90
16038;DHT22;8123;50.906;6.172;2022-11-30T04:35:14;7.60;99.90
16038;DHT22;8123;50.906;6.172;2022-11-30T04:37:40;7.80;99.90
16038;DHT22;8123;50.906;6.172;2022-11-30T04:40:06;7.50;99.90
16038;DHT22;8123;50.906;6.172;2022-11-30T04:42:32;7.60;99.90
16038;DHT22;8123;50.906;6.172;2022-11-30T04:44:57;7.60;99.90
16038;DHT22;8123;50.906;6.172;2022-11-30T04:47:23;7.80;99.90
16038;DHT22;8123;50.906;6.172;2022-11-30T04:49:49;7.50;99.90
16038;DHT22;8123;50.906;6.172;2022-11-30T04:52:15;7.80;99.90
16038;DHT22;8123;50.906;6.172;2022-11-30T04:54:40;7.70;99.90
16038;DHT22;8123;50.906;6.172;2022-11-30T04:57:06;7.50;99.90
16038;DHT22;8123;50.906;6.172;2022-11-30T04:59:32;7.50;99.90
16038;DHT22;8123;50.906;6.172;2022-11-30T05:01:57;7.50;99.90
16038;DHT22;8123;50.906;6.172;2022-11-30T05:04:23;7.50;99.90
16038;DHT22;8123;50.906;6.172;2022-11-30T05:06:49;7.50;99.90
16038;DHT22;8123;50.906;6.172;2022-11-30T05:09:14;7.50;99.90
16038;DHT22;8123;50.906;6.172;2022-11-30T05:11:40;7.70;99.90
16038;DHT22;8123;50.906;6.172;2022-11-30T05:14:05;7.50;99.90
16038;DHT22;8123;50.906;6.172;2022-11-30T05:16:31;7.60;99.90
16038;DHT22;8123;50.906;6.172;2022-11-30T05:18:57;7.60;99.90
16038;DHT22;8123;50.906;6.172;2022-11-30T05:21:22;7.60;99.90
16038;DHT22;8123;50.906;6.172;2022-11-30T05:23:48;7.60;99.90
16038;DHT22;8123;50.906;6.172;2022-11-30T05:26:14;7.50;99.90
16038;DHT22;8123;50.906;6.172;2022-11-30T05:28:40;7.60;99.90
16038;DHT22;8123;50.906;6.172;2022-11-30T05:31:07;7.60;99.90
16038;DHT22;8123;50.906;6.172;2022-11-30T05:33:33;7.50;99.90
16038;DHT22;8123;50.906;6.172;2022-11-30T05:35:59;7.60;99.90
16038;DHT22;8123;50.906;6.172;2022-11-30T05:38:25;7.60;99.90
16038;DHT22;8123;50.906;6.172;2022-11-30T05:40:50;7.60;99.90
16038;DHT22;8123;50.906;6.172;2022-11-30T05:43:16;7.60;99.90
16038;DHT22;8123;50.906;6.172;2022-11-30T05:45:43;7.50;99.90
16038;DHT22;8123;50.906;6.172;2022-11-30T05:48:09;7.60;99.90
16038;DHT22;8123;50.906;6.172;2022-11-30T05:50:34;7.60;99.90
16038;DHT22;8123;50.906;6.172;2022-11-30T05:53:00;7.60;99.90
16038;DHT22;8123;50.906;6.172;2022-11-30T05:55:27;7.70;99.90
16038;DHT22;8123;50.906;6.172;2022-11-30T05:57:53;7.60;99.90
16038;DHT22;8123;50.906;6.172;2022-11-30T06:00:20;7.50;99.90
16038;DHT22;8123;50.906;6.172;2022-11-30T06:02:46;7.60;99.90
16038;DHT22;8123;50.906;6.172;2022-11-30T06:05:12;7.60;99.90
16038;DHT22;8123;50.906;6.172;2022-11-30T06:07:39;7.70;99.90
16038;DHT22;8123;50.906;6.172;2022-11-30T06:10:05;7.60;99.90
16038;DHT22;8123;50.906;6.172;2022-11-30T06:12:31;7.60;99.90
16038;DHT22;8123;50.906;6.172;2022-11-30T06:14:57;7.50;99.90
16038;DHT22;8123;50.906;6.172;2022-11-30T06:17:22;7.60;99.90
16038;DHT22;8123;50.906;6.172;2022-11-30T06:19:48;7.60;99.90
16038;DHT22;8123;50.906;6.172;2022-11-30T06:22:14;7.50;99.90
16038;DHT22;8123;50.906;6.172;2022-11-30T06:24:39;7.40;99.90
16038;DHT22;8123;50.906;6.172;2022-11-30T06:27:05;7.40;99.90
16038;DHT22;8123;50.906;6.172;2022-11-30T06:29:31;7.80;99.90
16038;DHT22;8123;50.906;6.172;2022-11-30T06:31:56;7.60;99.90
16038;DHT22;8123;50.906;6.172;2022-11-30T06:34:22;7.60;99.90
16038;DHT22;8123;50.906;6.172;2022-11-30T06:36:48;7.50;99.90
16038;DHT22;8123;50.906;6.172;2022-11-30T06:39:13;7.50;99.90
16038;DHT22;8123;50.906;6.172;2022-11-30T06:41:39;7.40;99.90
16038;DHT22;8123;50.906;6.172;2022-11-30T06:44:08;7.50;99.90
16038;DHT22;8123;50.906;6.172;2022-11-30T06:46:35;7.40;99.90
16038;DHT22;8123;50.906;6.172;2022-11-30T06:49:00;7.60;99.90
16038;DHT22;8123;50.906;6.172;2022-11-30T06:51:26;7.50;99.90
16038;DHT22;8123;50.906;6.172;2022-11-30T06:53:51;7.40;99.90
16038;DHT22;8123;50.906;6.172;2022-11-30T06:56:17;7.40;99.90
16038;DHT22;8123;50.906;6.172;2022-11-30T06:58:43;7.50;99.90
16038;DHT22;8123;50.906;6.172;2022-11-30T07:01:12;7.50;99.90
16038;DHT22;8123;50.906;6.172;2022-11-30T07:03:39;7.40;99.90
16038;DHT22;8123;50.906;6.172;2022-11-30T07:06:07;7.40;99.90
16038;DHT22;8123;50.906;6.172;2022-11-30T07:08:33;7.40;99.90
16038;DHT22;8123;50.906;6.172;2022-11-30T07:10:59;7.50;99.90
16038;DHT22;8123;50.906;6.172;2022-11-30T07:13:24;7.50;99.90
16038;DHT22;8123;50.906;6.172;2022-11-30T07:15:50;7.70;99.90
16038;DHT22;8123;50.906;6.172;2022-11-30T07:18:16;7.80;99.90
16038;DHT22;8123;50.906;6.172;2022-11-30T07:20:41;7.50;99.90
16038;DHT22;8123;50.906;6.172;2022-11-30T07:23:07;7.60;99.90
16038;DHT22;8123;50.906;6.172;2022-11-30T07:25:52;7.50;99.90
16038;DHT22;8123;50.906;6.172;2022-11-30T07:28:41;7.50;99.90
16038;DHT22;8123;50.906;6.172;2022-11-30T07:31:25;7.40;99.90
16038;DHT22;8123;50.906;6.172;2022-11-30T07:33:51;7.60;99.90
16038;DHT22;8123;50.906;6.172;2022-11-30T07:36:19;7.50;99.90
16038;DHT22;8123;50.906;6.172;2022-11-30T07:38:45;7.70;99.90
16038;DHT22;8123;50.906;6.172;2022-11-30T07:41:11;7.40;99.90
16038;DHT22;8123;50.906;6.172;2022-11-30T07:43:37;7.40;99.90
16038;DHT22;8123;50.906;6.172;2022-11-30T07:46:03;7.40;99.90
16038;DHT22;8123;50.906;6.172;2022-11-30T07:48:29;7.40;99.90
16038;DHT22;8123;50.906;6.172;2022-11-30T07:51:01;7.50;99.90
16038;DHT22;8123;50.906;6.172;2022-11-30T07:53:27;7.50;99.90
16038;DHT22;8123;50.906;6.172;2022-11-30T07:55:53;7.30;99.90
16038;DHT22;8123;50.906;6.172;2022-11-30T07:58:18;7.40;99.90
16038;DHT22;8123;50.906;6.172;2022-11-30T08:00:44;7.30;99.90
16038;DHT22;8123;50.906;6.172;2022-11-30T08:03:09;7.30;99.90
16038;DHT22;8123;50.906;6.172;2022-11-30T08:05:35;7.30;99.90
16038;DHT22;8123;50.906;6.172;2022-11-30T08:08:01;7.20;99.90
16038;DHT22;8123;50.906;6.172;2022-11-30T08:10:26;7.30;99.90
16038;DHT22;8123;50.906;6.172;2022-11-30T08:12:52;7.30;99.90
16038;DHT22;8123;50.906;6.172;2022-11-30T08:15:18;7.30;99.90
16038;DHT22;8123;50.906;6.172;2022-11-30T08:17:43;7.50;99.90
16038;DHT22;8123;50.906;6.172;2022-11-30T08:20:11;7.30;99.90
16038;DHT22;8123;50.906;6.172;2022-11-30T08:22:36;7.30;99.90
16038;DHT22;8123;50.906;6.172;2022-11-30T08:25:02;7.20;99.90
16038;DHT22;8123;50.906;6.172;2022-11-30T08:27:28;7.30;99.90
16038;DHT22;8123;50.906;6.172;2022-11-30T08:29:54;7.30;99.90
16038;DHT22;8123;50.906;6.172;2022-11-30T08:32:19;7.20;99.90
16038;DHT22;8123;50.906;6.172;2022-11-30T08:34:46;7.20;99.90
16038;DHT22;8123;50.906;6.172;2022-11-30T08:37:11;7.50;99.90
16038;DHT22;8123;50.906;6.172;2022-11-30T08:39:37;7.30;99.90
16038;DHT22;8123;50.906;6.172;2022-11-30T08:42:03;7.20;99.90
16038;DHT22;8123;50.906;6.172;2022-11-30T08:44:29;7.20;99.90
16038;DHT22;8123;50.906;6.172;2022-11-30T08:46:55;7.20;99.90
16038;DHT22;8123;50.906;6.172;2022-11-30T08:49:21;7.10;99.90
16038;DHT22;8123;50.906;6.172;2022-11-30T08:51:52;7.10;99.90
16038;DHT22;8123;50.906;6.172;2022-11-30T08:54:18;7.10;99.90
16038;DHT22;8123;50.906;6.172;2022-11-30T08:56:44;7.10;99.90
16038;DHT22;8123;50.906;6.172;2022-11-30T08:59:10;7.20;99.90
16038;DHT22;8123;50.906;6.172;2022-11-30T09:01:35;7.10;99.90
16038;DHT22;8123;50.906;6.172;2022-11-30T09:04:01;7.20;99.90
16038;DHT22;8123;50.906;6.172;2022-11-30T09:06:28;7.20;99.90
16038;DHT22;8123;50.906;6.172;2022-11-30T09:08:56;7.30;99.90
16038;DHT22;8123;50.906;6.172;2022-11-30T09:11:28;7.30;99.90
16038;DHT22;8123;50.906;6.172;2022-11-30T09:13:57;7.30;99.90
16038;DHT22;8123;50.906;6.172;2022-11-30T09:16:23;7.40;99.90
16038;DHT22;8123;50.906;6.172;2022-11-30T09:18:50;7.30;99.90
16038;DHT22;8123;50.906;6.172;2022-11-30T09:21:18;7.30;99.90
16038;DHT22;8123;50.906;6.172;2022-11-30T09:23:45;7.40;99.90
16038;DHT22;8123;50.906;6.172;2022-11-30T09:26:13;7.60;99.90
16038;DHT22;8123;50.906;6.172;2022-11-30T09:28:39;7.40;99.90
16038;DHT22;8123;50.906;6.172;2022-11-30T09:31:14;7.40;99.90
16038;DHT22;8123;50.906;6.172;2022-11-30T09:33:40;7.50;99.90
16038;DHT22;8123;50.906;6.172;2022-11-30T09:36:08;7.50;99.90
16038;DHT22;8123;50.906;6.172;2022-11-30T09:38:34;7.40;99.90
16038;DHT22;8123;50.906;6.172;2022-11-30T09:46:38;7.40;99.90
16038;DHT22;8123;50.906;6.172;2022-11-30T09:49:28;7.40;99.90
16038;DHT22;8123;50.906;6.172;2022-11-30T09:51:55;7.50;99.90
16038;DHT22;8123;50.906;6.172;2022-11-30T09:54:37;7.50;99.90
16038;DHT22;8123;50.906;6.172;2022-11-30T09:57:25;7.50;99.90
16038;DHT22;8123;50.906;6.172;2022-11-30T09:59:57;7.50;99.90
16038;DHT22;8123;50.906;6.172;2022-11-30T10:02:35;7.50;99.90
16038;DHT22;8123;50.906;6.172;2022-11-30T10:05:33;7.60;99.90
16038;DHT22;8123;50.906;6.172;2022-11-30T10:22:08;7.50;99.90
16038;DHT22;8123;50.906;6.172;2022-11-30T10:28:10;7.50;99.90
16038;DHT22;8123;50.906;6.172;2022-11-30T10:30:39;7.50;99.90
16038;DHT22;8123;50.906;6.172;2022-11-30T10:33:16;7.50;99.90
16038;DHT22;8123;50.906;6.172;2022-11-30T10:35:49;7.50;99.90
16038;DHT22;8123;50.906;6.172;2022-11-30T10:38:26;7.40;99.90
16038;DHT22;8123;50.906;6.172;2022-11-30T10:43:34;7.60;99.90
16038;DHT22;8123;50.906;6.172;2022-11-30T10:46:03;7.70;99.90
16038;DHT22;8123;50.906;6.172;2022-11-30T10:48:47;7.40;99.90
16038;DHT22;8123;50.906;6.172;2022-11-30T10:51:14;7.50;99.90
16038;DHT22;8123;50.906;6.172;2022-11-30T10:53:40;7.60;99.90
16038;DHT22;8123;50.906;6.172;2022-11-30T10:56:13;7.70;99.90
16038;DHT22;8123;50.906;6.172;2022-11-30T10:58:59;7.50;99.90
16038;DHT22;8123;50.906;6.172;2022-11-30T11:01:35;7.50;99.90
16038;DHT22;8123;50.906;6.172;2022-11-30T11:06:46;7.70;99.90
16038;DHT22;8123;50.906;6.172;2022-11-30T11:09:31;7.40;99.90
16038;DHT22;8123;50.906;6.172;2022-11-30T11:12:05;7.50;99.90
16038;DHT22;8123;50.906;6.172;2022-11-30T11:14:32;7.50;99.90
16038;DHT22;8123;50.906;6.172;2022-11-30T11:17:03;7.40;99.90
16038;DHT22;8123;50.906;6.172;2022-11-30T11:22:06;7.40;99.90
16038;DHT22;8123;50.906;6.172;2022-11-30T11:24:38;7.40;99.90
16038;DHT22;8123;50.906;6.172;2022-11-30T11:27:04;7.60;99.90
16038;DHT22;8123;50.906;6.172;2022-11-30T11:29:32;7.30;99.90
16038;DHT22;8123;50.906;6.172;2022-11-30T11:32:24;7.40;99.90
16038;DHT22;8123;50.906;6.172;2022-11-30T11:34:50;7.50;99.90
16038;DHT22;8123;50.906;6.172;2022-11-30T11:37:26;7.50;99.90
16038;DHT22;8123;50.906;6.172;2022-11-30T11:40:12;7.50;99.90
16038;DHT22;8123;50.906;6.172;2022-11-30T11:42:46;7.60;99.90
16038;DHT22;8123;50.906;6.172;2022-11-30T11:45:21;7.80;99.90
16038;DHT22;8123;50.906;6.172;2022-11-30T11:47:58;7.60;99.90
16038;DHT22;8123;50.906;6.172;2022-11-30T11:50:27;7.50;99.90
16038;DHT22;8123;50.906;6.172;2022-11-30T11:53:15;7.60;99.90
16038;DHT22;8123;50.906;6.172;2022-11-30T11:56:49;7.60;99.90
16038;DHT22;8123;50.906;6.172;2022-11-30T11:58:54;7.70;99.90
16038;DHT22;8123;50.906;6.172;2022-11-30T12:01:35;7.60;99.90
16038;DHT22;8123;50.906;6.172;2022-11-30T12:06:43;7.70;99.90
16038;DHT22;8123;50.906;6.172;2022-11-30T12:09:21;7.70;99.90
16038;DHT22;8123;50.906;6.172;2022-11-30T12:11:48;7.80;99.90
16038;DHT22;8123;50.906;6.172;2022-11-30T12:14:16;7.90;99.90
16038;DHT22;8123;50.906;6.172;2022-11-30T12:20:31;7.90;99.90
16038;DHT22;8123;50.906;6.172;2022-11-30T12:25:28;8.00;99.90
16038;DHT22;8123;50.906;6.172;2022-11-30T12:28:05;8.30;99.90
16038;DHT22;8123;50.906;6.172;2022-11-30T12:34:12;8.10;99.90
16038;DHT22;8123;50.906;6.172;2022-11-30T12:36:48;8.10;99.90
16038;DHT22;8123;50.906;6.172;2022-11-30T12:44:36;8.00;99.90
16038;DHT22;8123;50.906;6.172;2022-11-30T12:47:32;7.90;99.90
16038;DHT22;8123;50.906;6.172;2022-11-30T12:52:51;7.80;99.90
16038;DHT22;8123;50.906;6.172;2022-11-30T12:58:15;7.80;99.90
16038;DHT22;8123;50.906;6.172;2022-11-30T13:06:38;7.90;99.90
16038;DHT22;8123;50.906;6.172;2022-11-30T13:09:12;7.80;99.90
16038;DHT22;8123;50.906;6.172;2022-11-30T13:11:44;7.80;99.90
16038;DHT22;8123;50.906;6.172;2022-11-30T13:14:14;7.80;99.90
16038;DHT22;8123;50.906;6.172;2022-11-30T13:16:42;8.10;99.90
16038;DHT22;8123;50.906;6.172;2022-11-30T13:22:01;7.40;99.90
16038;DHT22;8123;50.906;6.172;2022-11-30T13:24:41;8.20;99.90
16038;DHT22;8123;50.906;6.172;2022-11-30T13:27:29;8.00;99.90
16038;DHT22;8123;50.906;6.172;2022-11-30T13:32:42;8.00;99.90
16038;DHT22;8123;50.906;6.172;2022-11-30T13:40:27;8.00;99.90
16038;DHT22;8123;50.906;6.172;2022-11-30T13:42:54;7.90;99.90
16038;DHT22;8123;50.906;6.172;2022-11-30T13:45:32;8.10;99.90
16038;DHT22;8123;50.906;6.172;2022-11-30T13:48:26;7.90;99.90
16038;DHT22;8123;50.906;6.172;2022-11-30T13:50:54;8.00;99.90
16038;DHT22;8123;50.906;6.172;2022-11-30T13:56:03;8.10;99.90
16038;DHT22;8123;50.906;6.172;2022-11-30T13:58:30;8.00;99.90
16038;DHT22;8123;50.906;6.172;2022-11-30T14:01:23;7.90;99.90
16038;DHT22;8123;50.906;6.172;2022-11-30T14:06:54;8.10;99.90
16038;DHT22;8123;50.906;6.172;2022-11-30T14:15:00;8.10;99.90
16038;DHT22;8123;50.906;6.172;2022-11-30T14:17:32;8.00;99.90
16038;DHT22;8123;50.906;6.172;2022-11-30T14:20:13;8.00;99.90
16038;DHT22;8123;50.906;6.172;2022-11-30T14:22:40;8.00;99.90
16038;DHT22;8123;50.906;6.172;2022-11-30T14:25:19;8.00;99.90
16038;DHT22;8123;50.906;6.172;2022-11-30T14:27:47;8.00;99.90
16038;DHT22;8123;50.906;6.172;2022-11-30T14:30:16;8.00;99.90
16038;DHT22;8123;50.906;6.172;2022-11-30T14:32:48;8.00;99.90
16038;DHT22;8123;50.906;6.172;2022-11-30T14:35:17;8.00;99.90
16038;DHT22;8123;50.906;6.172;2022-11-30T14:37:51;7.90;99.90
16038;DHT22;8123;50.906;6.172;2022-11-30T14:40:19;7.90;99.90
16038;DHT22;8123;50.906;6.172;2022-11-30T14:42:51;7.90;99.90
16038;DHT22;8123;50.906;6.172;2022-11-30T14:45:29;7.80;99.90
16038;DHT22;8123;50.906;6.172;2022-11-30T14:48:06;7.90;99.90
16038;DHT22;8123;50.906;6.172;2022-11-30T14:50:34;7.80;99.90
16038;DHT22;8123;50.906;6.172;2022-11-30T14:55:53;7.80;99.90
16038;DHT22;8123;50.906;6.172;2022-11-30T15:00:53;7.80;99.90
16038;DHT22;8123;50.906;6.172;2022-11-30T15:05:44;7.80;99.90
16038;DHT22;8123;50.906;6.172;2022-11-30T15:08:14;7.90;99.90
16038;DHT22;8123;50.906;6.172;2022-11-30T15:10:41;7.80;99.90
16038;DHT22;8123;50.906;6.172;2022-11-30T15:13:14;7.80;99.90
16038;DHT22;8123;50.906;6.172;2022-11-30T15:15:53;7.70;99.90
16038;DHT22;8123;50.906;6.172;2022-11-30T15:18:22;7.70;99.90
16038;DHT22;8123;50.906;6.172;2022-11-30T15:23:20;7.70;99.90
16038;DHT22;8123;50.906;6.172;2022-11-30T15:25:51;7.70;99.90
16038;DHT22;8123;50.906;6.172;2022-11-30T15:28:24;7.70;99.90
16038;DHT22;8123;50.906;6.172;2022-11-30T15:30:55;7.70;99.90
16038;DHT22;8123;50.906;6.172;2022-11-30T15:33:25;8.00;99.90
16038;DHT22;8123;50.906;6.172;2022-11-30T15:35:53;7.70;99.90
16038;DHT22;8123;50.906;6.172;2022-11-30T15:38:23;7.60;99.90
16038;DHT22;8123;50.906;6.172;2022-11-30T15:40:49;7.60;99.90
16038;DHT22;8123;50.906;6.172;2022-11-30T15:43:23;7.60;99.90
16038;DHT22;8123;50.906;6.172;2022-11-30T15:45:57;7.60;99.90
16038;DHT22;8123;50.906;6.172;2022-11-30T15:48:38;7.50;99.90
16038;DHT22;8123;50.906;6.172;2022-11-30T15:51:04;7.50;99.90
16038;DHT22;8123;50.906;6.172;2022-11-30T15:53:46;7.50;99.90
16038;DHT22;8123;50.906;6.172;2022-11-30T15:56:25;7.40;99.90
16038;DHT22;8123;50.906;6.172;2022-11-30T16:01:25;7.40;99.90
16038;DHT22;8123;50.906;6.172;2022-11-30T16:06:21;7.30;99.90
16038;DHT22;8123;50.906;6.172;2022-11-30T16:08:48;7.30;99.90
16038;DHT22;8123;50.906;6.172;2022-11-30T16:11:15;7.30;99.90
16038;DHT22;8123;50.906;6.172;2022-11-30T16:13:42;7.40;99.90
16038;DHT22;8123;50.906;6.172;2022-11-30T16:16:19;7.40;99.90
16038;DHT22;8123;50.906;6.172;2022-11-30T16:18:45;7.40;99.90
16038;DHT22;8123;50.906;6.172;2022-11-30T16:21:12;7.50;99.90
16038;DHT22;8123;50.906;6.172;2022-11-30T16:23:41;7.40;99.90
16038;DHT22;8123;50.906;6.172;2022-11-30T16:26:15;7.50;99.90
16038;DHT22;8123;50.906;6.172;2022-11-30T16:28:40;7.50;99.90
16038;DHT22;8123;50.906;6.172;2022-11-30T16:31:13;7.50;99.90
16038;DHT22;8123;50.906;6.172;2022-11-30T16:33:39;7.40;99.90
16038;DHT22;8123;50.906;6.172;2022-11-30T16:36:16;7.60;99.90
16038;DHT22;8123;50.906;6.172;2022-11-30T16:38:42;7.60;99.90
16038;DHT22;8123;50.906;6.172;2022-11-30T16:43:40;7.40;99.90
16038;DHT22;8123;50.906;6.172;2022-11-30T16:46:10;7.40;99.90
16038;DHT22;8123;50.906;6.172;2022-11-30T16:48:36;7.40;99.90
16038;DHT22;8123;50.906;6.172;2022-11-30T16:51:02;7.30;99.90
16038;DHT22;8123;50.906;6.172;2022-11-30T16:53:28;7.40;99.90
16038;DHT22;8123;50.906;6.172;2022-11-30T16:55:53;7.40;99.90
16038;DHT22;8123;50.906;6.172;2022-11-30T16:58:19;7.50;99.90
16038;DHT22;8123;50.906;6.172;2022-11-30T17:00:45;7.40;99.90
16038;DHT22;8123;50.906;6.172;2022-11-30T17:03:24;7.40;99.90
16038;DHT22;8123;50.906;6.172;2022-11-30T17:05:51;7.40;99.90
16038;DHT22;8123;50.906;6.172;2022-11-30T17:08:16;7.40;99.90
16038;DHT22;8123;50.906;6.172;2022-11-30T17:10:42;7.40;99.90
16038;DHT22;8123;50.906;6.172;2022-11-30T17:13:12;7.30;99.90
16038;DHT22;8123;50.906;6.172;2022-11-30T17:15:38;7.40;99.90
16038;DHT22;8123;50.906;6.172;2022-11-30T17:18:04;7.40;99.90
16038;DHT22;8123;50.906;6.172;2022-11-30T17:20:29;7.40;99.90
16038;DHT22;8123;50.906;6.172;2022-11-30T17:22:55;7.60;99.90
16038;DHT22;8123;50.906;6.172;2022-11-30T17:25:22;7.70;99.90
16038;DHT22;8123;50.906;6.172;2022-11-30T17:27:49;7.50;99.90
16038;DHT22;8123;50.906;6.172;2022-11-30T17:30:17;7.50;99.90
16038;DHT22;8123;50.906;6.172;2022-11-30T17:32:44;7.50;99.90
16038;DHT22;8123;50.906;6.172;2022-11-30T17:35:10;7.50;99.90
16038;DHT22;8123;50.906;6.172;2022-11-30T17:37:36;7.50;99.90
16038;DHT22;8123;50.906;6.172;2022-11-30T17:40:02;7.40;99.90
16038;DHT22;8123;50.906;6.172;2022-11-30T17:42:28;7.40;99.90
16038;DHT22;8123;50.906;6.172;2022-11-30T17:44:54;7.40;99.90
16038;DHT22;8123;50.906;6.172;2022-11-30T17:47:20;7.50;99.90
16038;DHT22;8123;50.906;6.172;2022-11-30T17:49:47;7.50;99.90
16038;DHT22;8123;50.906;6.172;2022-11-30T17:52:13;7.50;99.90
16038;DHT22;8123;50.906;6.172;2022-11-30T17:54:38;7.60;99.90
16038;DHT22;8123;50.906;6.172;2022-11-30T17:57:04;7.50;99.90
16038;DHT22;8123;50.906;6.172;2022-11-30T17:59:30;7.60;99.90
16038;DHT22;8123;50.906;6.172;2022-11-30T18:01:55;7.50;99.90
16038;DHT22;8123;50.906;6.172;2022-11-30T18:04:21;7.50;99.90
16038;DHT22;8123;50.906;6.172;2022-11-30T18:06:47;7.50;99.90